createdAt,value
2017-12-17T00:00:55.740Z,12.30
2017-12-17T00:02:56.886Z,14.70
2017-12-17T00:04:57.882Z,12.00
2017-12-17T00:06:59.606Z,16.80
2017-12-17T00:09:00.710Z,12.17
2017-12-17T00:11:01.682Z,17.43
2017-12-17T00:13:02.704Z,10.37
2017-12-17T00:15:03.699Z,16.83
2017-12-17T00:17:04.689Z,12.47
2017-12-17T00:19:06.420Z,14.10
2017-12-17T00:21:07.413Z,20.00
2017-12-17T00:23:08.436Z,15.50
2017-12-17T00:25:10.196Z,22.43
2017-12-17T00:27:11.164Z,13.90
2017-12-17T00:29:12.917Z,12.40
2017-12-17T00:31:14.666Z,15.07
2017-12-17T00:33:15.693Z,12.30
2017-12-17T00:35:16.863Z,13.73
2017-12-17T00:37:17.876Z,18.97
2017-12-17T00:39:18.912Z,15.03
2017-12-17T00:41:19.876Z,18.90
2017-12-17T00:43:20.888Z,15.53
2017-12-17T00:45:21.854Z,18.10
2017-12-17T00:47:27.158Z,23.13
2017-12-17T00:49:29.931Z,13.70
2017-12-17T00:51:31.021Z,12.07
2017-12-17T00:53:32.038Z,13.53
2017-12-17T00:55:33.029Z,14.70
2017-12-17T00:57:34.054Z,20.40
2017-12-17T00:59:35.057Z,17.60
2017-12-17T01:01:36.106Z,13.07
2017-12-17T01:03:37.129Z,12.67
2017-12-17T01:05:38.118Z,19.10
2017-12-17T01:07:39.902Z,18.63
2017-12-17T01:09:40.914Z,13.63
2017-12-17T01:11:41.947Z,12.87
2017-12-17T01:13:43.003Z,16.20
2017-12-17T01:15:43.994Z,19.30
2017-12-17T01:17:45.025Z,13.53
2017-12-17T01:19:46.752Z,14.97
2017-12-17T01:21:47.761Z,19.47
2017-12-17T01:23:48.759Z,10.53
2017-12-17T01:25:49.834Z,11.93
2017-12-17T01:27:51.610Z,11.13
2017-12-17T01:29:53.343Z,11.27
2017-12-17T01:31:54.386Z,10.03
2017-12-17T01:33:55.407Z,14.60
2017-12-17T01:35:56.400Z,13.10
2017-12-17T01:37:58.168Z,13.40
2017-12-17T01:39:59.144Z,14.93
2017-12-17T01:42:00.121Z,21.77
2017-12-17T01:44:01.152Z,20.10
2017-12-17T01:46:02.143Z,15.80
2017-12-17T01:48:03.933Z,11.40
2017-12-17T01:50:04.976Z,20.60
2017-12-17T01:52:06.748Z,16.03
2017-12-17T01:54:07.738Z,16.50
2017-12-17T01:56:08.739Z,15.50
2017-12-17T01:58:09.753Z,24.53
2017-12-17T02:00:11.525Z,16.67
2017-12-17T02:02:12.589Z,10.67
2017-12-17T02:04:14.349Z,28.53
2017-12-17T02:06:16.089Z,24.73
2017-12-17T02:08:17.072Z,17.63
2017-12-17T02:10:18.099Z,25.13
2017-12-17T02:12:19.854Z,12.10
2017-12-17T02:14:20.862Z,21.50
2017-12-17T02:16:21.867Z,17.67
2017-12-17T02:18:23.609Z,18.63
2017-12-17T02:20:24.722Z,16.77
2017-12-17T02:22:25.761Z,18.43
2017-12-17T02:24:26.840Z,19.53
2017-12-17T02:26:27.929Z,14.40
2017-12-17T02:28:29.722Z,12.10
2017-12-17T02:30:30.735Z,17.93
2017-12-17T02:32:31.750Z,18.43
2017-12-17T02:34:32.779Z,9.77
2017-12-17T02:36:33.835Z,23.20
2017-12-17T02:38:34.891Z,13.43
2017-12-17T02:40:35.925Z,14.67
2017-12-17T02:42:36.998Z,13.83
2017-12-17T02:44:38.011Z,10.27
2017-12-17T02:46:39.029Z,27.53
2017-12-17T02:48:40.081Z,23.07
2017-12-17T02:50:41.069Z,7.70
2017-12-17T02:52:42.105Z,10.77
2017-12-17T02:54:43.141Z,12.07
2017-12-17T02:56:44.190Z,20.27
2017-12-17T02:58:45.198Z,15.30
2017-12-17T03:00:46.445Z,9.47
2017-12-17T03:02:47.431Z,13.30
2017-12-17T03:04:48.436Z,9.93
2017-12-17T03:06:49.429Z,8.37
2017-12-17T03:08:50.436Z,12.40
2017-12-17T03:10:52.232Z,7.43
2017-12-17T03:12:53.241Z,16.53
2017-12-17T03:14:54.224Z,8.93
2017-12-17T03:16:55.285Z,14.70
2017-12-17T03:18:56.280Z,10.93
2017-12-17T03:20:58.041Z,8.93
2017-12-17T03:22:59.824Z,8.87
2017-12-17T03:25:00.805Z,12.33
2017-12-17T03:27:01.808Z,14.03
2017-12-17T03:29:03.595Z,8.23
2017-12-17T03:31:04.621Z,9.33
2017-12-17T03:33:06.442Z,14.03
2017-12-17T03:35:07.429Z,10.07
2017-12-17T03:37:08.457Z,10.40
2017-12-17T03:39:09.487Z,12.13
2017-12-17T03:41:10.504Z,17.27
2017-12-17T03:43:11.537Z,9.40
2017-12-17T03:45:13.064Z,9.63
2017-12-17T03:47:14.082Z,21.43
2017-12-17T03:49:15.101Z,11.50
2017-12-17T03:51:16.093Z,10.00
2017-12-17T03:53:17.109Z,15.40
2017-12-17T03:55:18.130Z,12.40
2017-12-17T03:57:19.197Z,16.93
2017-12-17T03:59:20.221Z,11.83
2017-12-17T04:01:21.264Z,8.73
2017-12-17T04:03:23.054Z,9.60
2017-12-17T04:05:24.273Z,14.33
2017-12-17T04:07:26.040Z,11.70
2017-12-17T04:09:27.762Z,20.73
2017-12-17T04:11:28.796Z,9.57
2017-12-17T04:13:30.036Z,11.93
2017-12-17T04:15:31.049Z,14.90
2017-12-17T04:17:32.808Z,11.17
2017-12-17T04:19:33.880Z,16.70
2017-12-17T04:21:34.944Z,11.10
2017-12-17T04:23:35.959Z,14.50
2017-12-17T04:25:37.692Z,13.37
2017-12-17T04:27:38.717Z,15.00
2017-12-17T04:29:39.729Z,11.97
2017-12-17T04:31:40.800Z,10.10
2017-12-17T04:33:41.770Z,21.90
2017-12-17T04:35:42.772Z,15.27
2017-12-17T04:37:43.777Z,22.20
2017-12-17T04:39:44.776Z,12.93
2017-12-17T04:41:45.823Z,10.47
2017-12-17T04:43:46.802Z,11.90
2017-12-17T04:45:47.834Z,19.63
2017-12-17T04:47:48.806Z,11.33
2017-12-17T04:49:49.849Z,15.43
2017-12-17T04:51:50.855Z,16.03
2017-12-17T04:53:51.884Z,18.50
2017-12-17T04:55:53.674Z,12.80
2017-12-17T04:57:54.658Z,13.27
2017-12-17T04:59:55.706Z,17.40
2017-12-17T05:01:56.680Z,15.00
2017-12-17T05:03:57.694Z,12.97
2017-12-17T05:05:58.730Z,11.83
2017-12-17T05:07:59.757Z,10.50
2017-12-17T05:10:00.725Z,12.50
2017-12-17T05:12:01.686Z,16.90
2017-12-17T05:14:02.694Z,14.80
2017-12-17T05:16:03.682Z,9.97
2017-12-17T05:18:04.705Z,12.87
2017-12-17T05:20:05.698Z,10.30
2017-12-17T05:22:06.683Z,9.40
2017-12-17T05:24:07.700Z,13.77
2017-12-17T05:26:09.434Z,12.87
2017-12-17T05:28:10.489Z,10.97
2017-12-17T05:30:11.536Z,17.93
2017-12-17T05:32:12.676Z,12.20
2017-12-17T05:34:13.646Z,13.67
2017-12-17T05:36:14.686Z,14.97
2017-12-17T05:38:15.734Z,8.90
2017-12-17T05:40:16.824Z,12.93
2017-12-17T05:42:17.798Z,14.60
2017-12-17T05:44:18.801Z,11.43
2017-12-17T05:46:19.806Z,16.63
2017-12-17T05:48:20.799Z,12.07
2017-12-17T05:50:21.821Z,14.27
2017-12-17T05:52:22.815Z,13.33
2017-12-17T05:54:23.823Z,8.00
2017-12-17T05:56:25.559Z,10.60
2017-12-17T05:58:26.545Z,13.20
2017-12-17T06:00:28.289Z,10.87
2017-12-17T06:02:29.285Z,20.43
2017-12-17T06:04:30.288Z,15.60
2017-12-17T06:06:32.061Z,8.17
2017-12-17T06:08:33.801Z,12.90
2017-12-17T06:10:34.802Z,18.50
2017-12-17T06:12:35.844Z,11.43
2017-12-17T06:14:36.832Z,17.00
2017-12-17T06:16:37.868Z,12.20
2017-12-17T06:18:38.902Z,21.63
2017-12-17T06:20:39.912Z,13.47
2017-12-17T06:22:41.665Z,11.83
2017-12-17T06:24:43.418Z,11.67
2017-12-17T06:26:44.477Z,13.20
2017-12-17T06:28:45.497Z,13.03
2017-12-17T06:30:46.510Z,16.67
2017-12-17T06:32:47.488Z,11.83
2017-12-17T06:34:48.476Z,13.37
2017-12-17T06:36:49.472Z,14.87
2017-12-17T06:38:50.472Z,17.30
2017-12-17T06:40:51.473Z,14.17
2017-12-17T06:42:52.442Z,12.50
2017-12-17T06:44:53.443Z,17.83
2017-12-17T06:46:54.452Z,17.33
2017-12-17T06:48:56.197Z,14.70
2017-12-17T06:50:57.213Z,12.73
2017-12-17T06:52:58.319Z,14.03
2017-12-17T06:55:00.121Z,19.67
2017-12-17T06:57:02.027Z,14.90
2017-12-17T06:59:03.061Z,15.90
2017-12-17T07:01:04.843Z,17.03
2017-12-17T07:03:06.564Z,14.93
2017-12-17T07:05:07.566Z,12.23
2017-12-17T07:07:09.261Z,18.13
2017-12-17T07:09:10.253Z,12.70
2017-12-17T07:11:11.264Z,15.20
2017-12-17T07:13:12.965Z,17.43
2017-12-17T07:15:14.149Z,12.07
2017-12-17T07:17:15.151Z,20.27
2017-12-17T07:19:16.199Z,18.20
2017-12-17T07:21:17.216Z,12.77
2017-12-17T07:23:18.268Z,16.50
2017-12-17T07:25:19.286Z,20.43
2017-12-17T07:27:20.273Z,21.07
2017-12-17T07:29:21.261Z,12.80
2017-12-17T07:31:22.973Z,17.13
2017-12-17T07:33:24.694Z,13.50
2017-12-17T07:35:26.419Z,21.20
2017-12-17T07:37:27.396Z,21.57
2017-12-17T07:39:28.378Z,17.60
2017-12-17T07:41:29.373Z,17.77
2017-12-17T07:43:30.360Z,16.80
2017-12-17T07:45:32.221Z,21.37
2017-12-17T07:47:33.214Z,29.70
2017-12-17T07:49:34.210Z,20.70
2017-12-17T07:51:35.939Z,19.87
2017-12-17T07:53:36.941Z,25.60
2017-12-17T07:55:37.934Z,15.83
2017-12-17T07:57:39.106Z,19.00
2017-12-17T07:59:40.843Z,20.07
2017-12-17T08:01:41.818Z,15.20
2017-12-17T08:03:43.514Z,19.37
2017-12-17T08:05:44.505Z,24.73
2017-12-17T08:07:45.477Z,21.43
2017-12-17T08:09:47.188Z,22.23
2017-12-17T08:11:48.153Z,17.77
2017-12-17T08:13:49.170Z,18.57
2017-12-17T08:15:50.186Z,21.60
2017-12-17T08:17:51.173Z,18.63
2017-12-17T08:19:52.168Z,22.20
2017-12-17T08:21:53.164Z,22.43
2017-12-17T08:23:54.138Z,27.57
2017-12-17T08:25:55.101Z,22.40
2017-12-17T08:27:56.812Z,23.77
2017-12-17T08:29:57.793Z,21.00
2017-12-17T08:31:58.777Z,27.90
2017-12-17T08:33:59.781Z,20.67
2017-12-17T08:36:00.791Z,21.83
2017-12-17T08:38:01.827Z,32.93
2017-12-17T08:40:02.812Z,20.97
2017-12-17T08:42:03.810Z,18.90
2017-12-17T08:44:04.799Z,24.30
2017-12-17T08:46:05.740Z,30.63
2017-12-17T08:48:06.732Z,23.30
2017-12-17T08:50:07.968Z,22.00
2017-12-17T08:52:09.063Z,19.07
2017-12-17T08:54:10.059Z,21.73
2017-12-17T08:56:11.027Z,20.00
2017-12-17T08:58:12.776Z,22.37
2017-12-17T09:00:13.800Z,21.70
2017-12-17T09:02:14.810Z,36.57
2017-12-17T09:04:15.780Z,19.60
2017-12-17T09:06:16.794Z,22.77
2017-12-17T09:08:17.800Z,16.27
2017-12-17T09:10:18.802Z,22.47
2017-12-17T09:12:19.789Z,20.90
2017-12-17T09:14:20.775Z,26.03
2017-12-17T09:16:22.501Z,21.50
2017-12-17T09:18:23.462Z,17.53
2017-12-17T09:20:25.349Z,16.60
2017-12-17T09:22:26.354Z,31.47
2017-12-17T09:24:28.125Z,24.10
2017-12-17T09:26:29.144Z,15.17
2017-12-17T09:28:30.138Z,12.70
2017-12-17T09:30:31.133Z,10.73
2017-12-17T09:32:32.294Z,11.10
2017-12-17T09:34:33.457Z,11.33
2017-12-17T09:36:34.438Z,15.07
2017-12-17T09:38:35.431Z,19.27
2017-12-17T09:40:36.409Z,10.23
2017-12-17T09:42:37.460Z,9.70
2017-12-17T09:44:38.477Z,14.77
2017-12-17T09:46:39.476Z,11.37
2017-12-17T09:48:41.225Z,7.43
2017-12-17T09:50:42.196Z,9.90
2017-12-17T09:52:43.944Z,9.10
2017-12-17T09:54:45.672Z,10.13
2017-12-17T09:56:46.642Z,7.87
2017-12-17T09:58:47.606Z,9.73
2017-12-17T10:00:49.328Z,8.60
2017-12-17T10:02:50.697Z,10.80
2017-12-17T10:04:51.764Z,19.43
2017-12-17T10:06:53.556Z,8.43
2017-12-17T10:08:54.562Z,6.97
2017-12-17T10:10:55.542Z,10.73
2017-12-17T10:12:56.693Z,9.67
2017-12-17T10:14:58.699Z,9.43
2017-12-17T10:16:59.856Z,11.60
2017-12-17T10:19:01.701Z,8.97
2017-12-17T10:21:03.724Z,11.67
2017-12-17T10:23:04.782Z,15.70
2017-12-17T10:25:07.518Z,11.63
2017-12-17T10:27:08.477Z,7.17
2017-12-17T10:29:09.452Z,6.40
2017-12-17T10:31:10.424Z,8.87
2017-12-17T10:33:11.405Z,5.50
2017-12-17T10:35:12.393Z,7.70
2017-12-17T10:37:13.353Z,5.07
2017-12-17T10:39:15.058Z,6.53
2017-12-17T10:41:16.041Z,7.87
2017-12-17T10:43:17.003Z,7.30
2017-12-17T10:45:19.137Z,7.43
2017-12-17T10:47:20.123Z,7.80
2017-12-17T10:49:22.072Z,5.27
2017-12-17T10:51:23.065Z,5.23
2017-12-17T10:53:24.021Z,5.20
2017-12-17T10:55:25.021Z,8.73
2017-12-17T10:57:26.177Z,8.00
2017-12-17T10:59:27.186Z,11.67
2017-12-17T11:01:28.171Z,8.77
2017-12-17T11:03:29.498Z,3.47
2017-12-17T11:05:30.556Z,6.37
2017-12-17T11:07:31.528Z,6.30
2017-12-17T11:09:33.268Z,11.63
2017-12-17T11:11:34.239Z,6.43
2017-12-17T11:13:35.239Z,5.80
2017-12-17T11:15:36.281Z,6.93
2017-12-17T11:17:37.257Z,11.23
2017-12-17T11:19:38.249Z,4.90
2017-12-17T11:21:39.211Z,6.67
2017-12-17T11:23:40.189Z,8.03
2017-12-17T11:25:41.193Z,5.87
2017-12-17T11:27:42.159Z,8.30
2017-12-17T11:29:43.149Z,5.60
2017-12-17T11:31:44.143Z,9.03
2017-12-17T11:33:45.130Z,5.40
2017-12-17T11:35:46.104Z,6.93
2017-12-17T11:37:47.813Z,7.17
2017-12-17T11:39:48.788Z,10.70
2017-12-17T11:41:49.760Z,7.93
2017-12-17T11:43:51.476Z,7.50
2017-12-17T11:45:52.503Z,5.73
2017-12-17T11:47:53.462Z,6.37
2017-12-17T11:49:54.469Z,10.00
2017-12-17T11:51:55.502Z,6.33
2017-12-17T11:53:57.256Z,8.40
2017-12-17T11:55:58.310Z,5.73
2017-12-17T11:57:59.351Z,10.60
2017-12-17T12:00:00.408Z,6.37
2017-12-17T12:02:02.138Z,5.60
2017-12-17T12:04:03.152Z,5.83
2017-12-17T12:06:04.142Z,3.80
2017-12-17T12:08:05.113Z,4.37
2017-12-17T12:10:06.853Z,5.70
2017-12-17T12:12:07.889Z,5.70
2017-12-17T12:14:08.975Z,9.87
2017-12-17T12:16:10.008Z,5.47
2017-12-17T12:18:10.985Z,7.23
2017-12-17T12:20:11.977Z,4.60
2017-12-17T12:22:12.961Z,5.20
2017-12-17T12:24:14.680Z,8.00
2017-12-17T12:26:15.711Z,7.90
2017-12-17T12:28:16.739Z,5.23
2017-12-17T12:30:17.740Z,9.37
2017-12-17T12:32:18.721Z,7.57
2017-12-17T12:34:20.128Z,12.93
2017-12-17T12:36:21.160Z,6.00
2017-12-17T12:38:22.155Z,9.37
2017-12-17T12:40:23.137Z,5.80
2017-12-17T12:42:24.168Z,11.53
2017-12-17T12:44:25.141Z,8.33
2017-12-17T12:46:26.149Z,9.30
2017-12-17T12:48:27.168Z,7.50
2017-12-17T12:50:28.164Z,5.20
2017-12-17T12:52:29.153Z,4.77
2017-12-17T12:54:30.133Z,8.97
2017-12-17T12:56:31.152Z,7.80
2017-12-17T12:58:32.216Z,5.63
2017-12-17T13:00:33.205Z,6.30
2017-12-17T13:02:34.178Z,7.47
2017-12-17T13:04:35.178Z,7.57
2017-12-17T13:06:36.302Z,8.30
2017-12-17T13:08:37.345Z,7.83
2017-12-17T13:10:38.333Z,5.47
2017-12-17T13:12:39.358Z,7.90
2017-12-17T13:14:40.426Z,8.13
2017-12-17T13:16:41.501Z,5.43
2017-12-17T13:18:42.525Z,8.53
2017-12-17T13:20:43.528Z,5.20
2017-12-17T13:22:44.769Z,6.47
2017-12-17T13:24:45.778Z,6.43
2017-12-17T13:26:46.842Z,10.13
2017-12-17T13:28:47.857Z,6.27
2017-12-17T13:30:48.839Z,6.73
2017-12-17T13:32:49.835Z,12.60
2017-12-17T13:34:50.809Z,9.67
2017-12-17T13:36:51.782Z,3.93
2017-12-17T13:38:52.937Z,5.57
2017-12-17T13:40:53.991Z,10.53
2017-12-17T13:42:55.057Z,11.13
2017-12-17T13:44:56.268Z,5.63
2017-12-17T13:46:57.298Z,5.50
2017-12-17T13:48:58.249Z,7.43
2017-12-17T13:50:59.245Z,4.07
2017-12-17T13:53:00.352Z,5.57
2017-12-17T13:55:01.382Z,7.33
2017-12-17T13:57:02.364Z,4.03
2017-12-17T13:59:03.312Z,7.60
2017-12-17T14:01:04.500Z,13.03
2017-12-17T14:03:05.498Z,8.03
2017-12-17T14:05:06.499Z,6.80
2017-12-17T14:07:08.232Z,4.13
2017-12-17T14:09:10.050Z,8.43
2017-12-17T14:11:11.176Z,3.40
2017-12-17T14:13:12.181Z,9.63
2017-12-17T14:15:13.213Z,7.63
2017-12-17T14:17:14.200Z,4.33
2017-12-17T14:19:15.164Z,10.60
2017-12-17T14:21:16.138Z,6.73
2017-12-17T14:23:17.147Z,5.10
2017-12-17T14:25:18.142Z,5.20
2017-12-17T14:27:19.886Z,8.73
2017-12-17T14:29:20.935Z,6.53
2017-12-17T14:31:21.968Z,9.30
2017-12-17T14:33:26.090Z,6.20
2017-12-17T14:35:27.448Z,11.63
2017-12-17T14:37:28.442Z,9.20
2017-12-17T14:39:29.476Z,9.17
2017-12-17T14:41:30.460Z,14.40
2017-12-17T14:43:32.319Z,5.50
2017-12-17T14:45:33.319Z,5.47
2017-12-17T14:47:34.325Z,5.50
2017-12-17T14:49:35.317Z,6.27
2017-12-17T14:51:36.512Z,9.27
2017-12-17T14:53:37.521Z,6.23
2017-12-17T14:55:38.500Z,7.90
2017-12-17T14:57:39.515Z,9.30
2017-12-17T14:59:40.517Z,12.77
2017-12-17T15:01:41.481Z,10.80
2017-12-17T15:03:42.549Z,10.03
2017-12-17T15:05:44.291Z,10.10
2017-12-17T15:07:45.299Z,6.83
2017-12-17T15:09:46.285Z,11.23
2017-12-17T15:11:47.256Z,8.50
2017-12-17T15:13:48.977Z,7.37
2017-12-17T15:15:50.212Z,14.80
2017-12-17T15:17:51.208Z,6.67
2017-12-17T15:19:52.198Z,5.47
2017-12-17T15:21:53.220Z,5.00
2017-12-17T15:23:54.997Z,11.80
2017-12-17T15:25:56.021Z,10.07
2017-12-17T15:27:57.028Z,12.20
2017-12-17T15:29:58.011Z,5.03
2017-12-17T15:31:58.988Z,8.93
2017-12-17T15:33:59.978Z,9.83
2017-12-17T15:36:00.966Z,7.80
2017-12-17T15:38:02.807Z,10.83
2017-12-17T15:40:03.861Z,18.43
2017-12-17T15:42:05.622Z,6.63
2017-12-17T15:44:06.628Z,8.87
2017-12-17T15:46:08.381Z,8.83
2017-12-17T15:48:09.684Z,8.40
2017-12-17T15:50:10.723Z,8.93
2017-12-17T15:52:11.720Z,11.37
2017-12-17T15:54:12.725Z,11.77
2017-12-17T15:56:14.457Z,8.13
2017-12-17T15:58:15.734Z,14.73
2017-12-17T16:00:16.736Z,14.13
2017-12-17T16:02:17.728Z,8.13
2017-12-17T16:04:18.740Z,11.13
2017-12-17T16:06:19.731Z,8.83
2017-12-17T16:08:20.721Z,18.07
2017-12-17T16:10:21.805Z,14.37
2017-12-17T16:12:22.813Z,11.03
2017-12-17T16:14:23.873Z,12.80
2017-12-17T16:16:24.864Z,12.47
2017-12-17T16:18:25.901Z,16.20
2017-12-17T16:20:26.996Z,10.07
2017-12-17T16:22:27.992Z,14.87
2017-12-17T16:24:28.977Z,13.93
2017-12-17T16:26:29.959Z,13.80
2017-12-17T16:28:30.941Z,10.47
2017-12-17T16:30:31.917Z,10.93
2017-12-17T16:32:33.200Z,13.60
2017-12-17T16:34:34.193Z,25.93
2017-12-17T16:36:35.357Z,13.40
2017-12-17T16:38:37.100Z,16.93
2017-12-17T16:40:38.063Z,11.60
2017-12-17T16:42:39.047Z,14.40
2017-12-17T16:44:40.138Z,13.00
2017-12-17T16:46:41.130Z,18.37
2017-12-17T16:48:42.144Z,18.10
2017-12-17T16:50:43.880Z,14.03
2017-12-17T16:52:44.858Z,15.03
2017-12-17T16:54:45.918Z,22.93
2017-12-17T16:56:46.893Z,14.97
2017-12-17T16:58:47.934Z,20.90
2017-12-17T17:00:48.932Z,15.00
2017-12-17T17:02:49.910Z,17.60
2017-12-17T17:04:50.942Z,13.27
2017-12-17T17:06:51.908Z,20.30
2017-12-17T17:08:52.873Z,37.50
2017-12-17T17:10:53.845Z,19.00
2017-12-17T17:12:54.872Z,12.57
2017-12-17T17:14:55.887Z,21.63
2017-12-17T17:16:56.977Z,19.30
2017-12-17T17:18:57.957Z,19.37
2017-12-17T17:20:58.996Z,17.10
2017-12-17T17:23:00.006Z,21.30
2017-12-17T17:25:01.035Z,19.63
2017-12-17T17:27:02.118Z,15.80
2017-12-17T17:29:03.089Z,25.50
2017-12-17T17:31:04.045Z,23.80
2017-12-17T17:33:05.036Z,22.10
2017-12-17T17:35:06.146Z,18.77
2017-12-17T17:37:07.138Z,23.40
2017-12-17T17:39:08.198Z,20.73
2017-12-17T17:41:09.185Z,22.33
2017-12-17T17:43:10.200Z,23.67
2017-12-17T17:45:11.967Z,18.90
2017-12-17T17:47:13.161Z,20.70
2017-12-17T17:49:14.932Z,19.80
2017-12-17T17:51:15.989Z,26.40
2017-12-17T17:53:17.245Z,26.33
2017-12-17T17:55:18.239Z,28.47
2017-12-17T17:57:19.301Z,26.67
2017-12-17T17:59:20.276Z,24.63
2017-12-17T18:01:21.264Z,23.03
2017-12-17T18:03:22.269Z,26.43
2017-12-17T18:05:23.252Z,29.40
2017-12-17T18:07:24.222Z,31.20
2017-12-17T18:09:25.223Z,25.37
2017-12-17T18:11:26.330Z,25.27
2017-12-17T18:13:27.403Z,31.60
2017-12-17T18:15:28.453Z,30.30
2017-12-17T18:17:29.490Z,31.17
2017-12-17T18:19:30.529Z,26.73
2017-12-17T18:21:31.518Z,28.07
2017-12-17T18:23:32.586Z,29.00
2017-12-17T18:25:33.504Z,33.50
2017-12-17T18:27:34.500Z,32.90
2017-12-17T18:29:35.500Z,25.20
2017-12-17T18:31:36.464Z,26.47
2017-12-17T18:33:37.541Z,31.17
2017-12-17T18:35:38.817Z,31.37
2017-12-17T18:37:39.804Z,33.33
2017-12-17T18:39:40.812Z,31.47
2017-12-17T18:41:42.451Z,35.10
2017-12-17T18:43:43.550Z,34.20
2017-12-17T18:45:44.604Z,31.90
2017-12-17T18:47:45.577Z,27.10
2017-12-17T18:49:47.301Z,35.93
2017-12-17T18:51:48.377Z,39.43
2017-12-17T18:53:49.567Z,30.17
2017-12-17T18:55:50.553Z,29.47
2017-12-17T18:57:51.614Z,31.20
2017-12-17T18:59:52.611Z,26.63
2017-12-17T19:01:53.613Z,31.70
2017-12-17T19:03:56.696Z,35.87
2017-12-17T19:05:58.552Z,35.33
2017-12-17T19:07:59.750Z,32.47
2017-12-17T19:10:00.880Z,40.30
2017-12-17T19:12:02.769Z,34.07
2017-12-17T19:14:03.789Z,40.30
2017-12-17T19:16:04.788Z,37.33
2017-12-17T19:18:05.806Z,41.83
2017-12-17T19:20:06.796Z,31.27
2017-12-17T19:22:08.793Z,36.03
2017-12-17T19:24:09.822Z,30.87
2017-12-17T19:26:10.812Z,32.00
2017-12-17T19:28:11.871Z,36.37
2017-12-17T19:30:12.901Z,34.87
2017-12-17T19:32:13.885Z,33.97
2017-12-17T19:34:14.913Z,39.30
2017-12-17T19:36:15.908Z,35.90
2017-12-17T19:38:16.937Z,28.50
2017-12-17T19:40:17.912Z,30.63
2017-12-17T19:42:18.957Z,37.17
2017-12-17T19:44:20.276Z,36.93
2017-12-17T19:46:22.025Z,38.73
2017-12-17T19:48:23.056Z,37.43
2017-12-17T19:50:24.026Z,36.87
2017-12-17T19:52:25.016Z,38.37
2017-12-17T19:54:26.020Z,36.20
2017-12-17T19:56:27.021Z,33.43
2017-12-17T19:58:28.762Z,39.70
2017-12-17T20:00:30.025Z,44.83
2017-12-17T20:02:31.018Z,43.23
2017-12-17T20:04:32.009Z,38.27
2017-12-17T20:06:33.027Z,38.30
2017-12-17T20:08:34.115Z,42.60
2017-12-17T20:10:35.119Z,36.97
2017-12-17T20:12:37.033Z,41.80
2017-12-17T20:14:38.692Z,41.50
2017-12-17T20:16:39.840Z,45.47
2017-12-17T20:18:40.910Z,52.37
2017-12-17T20:20:41.908Z,54.00
2017-12-17T20:22:55.798Z,68.60
2017-12-17T20:24:56.937Z,51.87
2017-12-17T20:26:58.013Z,48.17
2017-12-17T20:28:59.004Z,52.70
2017-12-17T20:31:00.168Z,49.23
2017-12-17T20:33:01.192Z,61.37
2017-12-17T20:35:02.310Z,63.17
2017-12-17T20:37:03.378Z,64.87
2017-12-17T20:39:04.414Z,59.53
2017-12-17T20:41:05.515Z,66.23
2017-12-17T20:43:06.477Z,63.33
2017-12-17T20:45:07.476Z,66.57
2017-12-17T20:47:09.509Z,66.20
2017-12-17T20:49:11.342Z,57.17
2017-12-17T20:51:12.324Z,62.87
2017-12-17T20:53:13.374Z,69.07
2017-12-17T20:55:27.516Z,69.53
2017-12-17T20:57:29.032Z,53.63
2017-12-17T20:59:30.194Z,62.43
2017-12-17T21:01:33.389Z,62.03
2017-12-17T21:03:34.725Z,76.23
2017-12-17T21:05:36.134Z,81.37
2017-12-17T21:07:37.367Z,65.27
2017-12-17T21:09:38.490Z,71.03
2017-12-17T21:11:40.256Z,77.67
2017-12-17T21:13:42.385Z,70.97
2017-12-17T21:15:43.543Z,72.50
2017-12-17T21:17:44.537Z,69.77
2017-12-17T21:19:45.578Z,70.27
2017-12-17T21:21:59.743Z,65.10
2017-12-17T21:24:02.832Z,70.00
2017-12-17T21:26:06.111Z,63.33
2017-12-17T21:28:07.206Z,80.87
2017-12-17T21:30:10.738Z,64.20
2017-12-17T21:32:11.782Z,68.17
2017-12-17T21:34:12.754Z,69.07
2017-12-17T21:36:14.487Z,59.43
2017-12-17T21:38:15.525Z,66.60
2017-12-17T21:40:16.489Z,62.40
2017-12-17T21:42:17.517Z,62.40
2017-12-17T21:44:18.997Z,52.27
2017-12-17T21:46:19.981Z,61.40
2017-12-17T21:48:20.964Z,60.67
2017-12-17T21:50:21.917Z,64.03
2017-12-17T21:52:23.060Z,56.60
2017-12-17T21:54:24.205Z,45.37
2017-12-17T21:56:25.173Z,52.20
2017-12-17T21:58:27.227Z,57.13
2017-12-17T22:00:28.377Z,48.27
2017-12-17T22:02:29.358Z,60.53
2017-12-17T22:04:30.457Z,50.07
2017-12-17T22:06:32.165Z,52.57
2017-12-17T22:08:33.170Z,45.80
2017-12-17T22:10:34.281Z,49.43
2017-12-17T22:12:35.272Z,34.30
2017-12-17T22:14:36.729Z,44.30
2017-12-17T22:16:37.770Z,46.57
2017-12-17T22:18:38.737Z,39.33
2017-12-17T22:20:41.255Z,41.17
2017-12-17T22:22:42.276Z,35.50
2017-12-17T22:24:43.309Z,40.20
2017-12-17T22:26:44.270Z,40.13
2017-12-17T22:28:46.149Z,41.50
2017-12-17T22:30:47.156Z,41.57
2017-12-17T22:32:48.394Z,38.33
2017-12-17T22:34:49.412Z,39.37
2017-12-17T22:36:50.426Z,40.33
2017-12-17T22:38:51.541Z,45.47
2017-12-17T22:40:53.250Z,47.03
2017-12-17T22:42:54.283Z,43.10
2017-12-17T22:44:55.352Z,44.23
2017-12-17T22:46:56.413Z,30.03
2017-12-17T22:48:57.704Z,43.00
2017-12-17T22:50:58.870Z,36.23
2017-12-17T22:52:59.904Z,35.97
2017-12-17T22:55:01.601Z,36.60
2017-12-17T22:57:02.625Z,35.27
2017-12-17T22:59:03.657Z,35.97
2017-12-17T23:01:04.907Z,35.83
2017-12-17T23:03:06.724Z,37.27
2017-12-17T23:05:07.738Z,31.37
2017-12-17T23:07:09.464Z,34.20
2017-12-17T23:09:10.462Z,32.77
2017-12-17T23:11:11.475Z,32.90
2017-12-17T23:13:12.636Z,32.97
2017-12-17T23:15:25.415Z,39.97
2017-12-17T23:17:26.448Z,26.87
2017-12-17T23:19:28.392Z,31.33
2017-12-17T23:21:29.474Z,34.20
2017-12-17T23:23:30.470Z,33.30
2017-12-17T23:25:31.917Z,31.60
2017-12-17T23:27:34.092Z,40.70
2017-12-17T23:29:35.802Z,29.27
2017-12-17T23:31:36.941Z,26.30
2017-12-17T23:33:37.910Z,34.20
2017-12-17T23:35:40.719Z,25.57
2017-12-17T23:37:41.779Z,32.97
2017-12-17T23:39:42.837Z,34.93
2017-12-17T23:41:44.667Z,27.97
2017-12-17T23:43:47.329Z,25.30
2017-12-17T23:45:49.261Z,27.90
2017-12-17T23:47:50.222Z,27.17
2017-12-17T23:49:51.933Z,37.33
2017-12-17T23:51:52.975Z,25.77
2017-12-17T23:53:53.998Z,29.33
2017-12-17T23:55:55.243Z,27.80
2017-12-17T23:57:56.288Z,39.73
2017-12-17T23:59:57.600Z,26.90
